Time;durP1;ratioP1;P1;durP2;ratioP2;P2;SDS_P1;SDS_P2;PMS_P1;PMS_P2;Temp;Humidity;BMP_temperature;BMP_pressure;BME280_temperature;BME280_humidity;BME280_pressure;Samples;Min_cycle;Max_cycle;Signal;HPM_P1;HPM_P2
2023/01/17 00:01:14;;;;;;;1.50;1.40;;;4.50;99.90;;;;;;5052359;28;20294;-71
2023/01/17 00:11:55;;;;;;;1.60;1.50;;;4.40;99.90;;;;;;5051646;28;20218;-71
2023/01/17 00:14:22;;;;;;;1.77;1.67;;;4.40;99.90;;;;;;5052233;28;20234;-71
2023/01/17 00:16:49;;;;;;;1.90;1.70;;;4.50;99.90;;;;;;5050227;28;20282;-71
2023/01/17 01:33:54;;;;;;;7.20;5.20;;;4.40;99.90;;;;;;5048531;28;20583;-71
2023/01/17 01:36:21;;;;;;;8.10;5.30;;;4.50;99.90;;;;;;5049504;28;20317;-71
2023/01/17 01:38:49;;;;;;;8.07;4.97;;;4.50;99.90;;;;;;5010039;28;1099915;-71
2023/01/17 01:41:15;;;;;;;8.70;5.40;;;4.50;99.90;;;;;;5049846;28;20233;-71
2023/01/17 01:43:46;;;;;;;8.90;5.53;;;4.50;99.90;;;;;;5030683;28;20291;-71
2023/01/17 01:46:19;;;;;;;8.30;5.37;;;4.50;99.90;;;;;;5047537;28;20235;-71
2023/01/17 01:48:50;;;;;;;8.07;5.00;;;4.40;99.90;;;;;;5052351;28;20721;-71
2023/01/17 01:51:22;;;;;;;9.57;5.53;;;4.40;99.90;;;;;;5053930;28;20231;-71
2023/01/17 01:53:52;;;;;;;8.33;5.30;;;4.40;99.90;;;;;;5053636;28;20614;-71
2023/01/17 01:56:22;;;;;;;9.93;6.30;;;4.40;99.90;;;;;;5034328;28;20653;-71
2023/01/17 01:58:51;;;;;;;9.00;5.60;;;4.40;99.90;;;;;;5054427;28;20207;-71
2023/01/17 02:01:19;;;;;;;8.97;5.33;;;4.40;99.90;;;;;;5054247;28;20299;-71
2023/01/17 02:03:49;;;;;;;9.13;5.43;;;4.40;99.90;;;;;;5053966;28;20290;-71
2023/01/17 02:06:26;;;;;;;7.57;5.13;;;4.50;99.90;;;;;;5052914;28;20631;-71
2023/01/17 02:08:54;;;;;;;7.37;4.80;;;4.50;99.90;;;;;;5043061;28;20660;-71
2023/01/17 02:11:22;;;;;;;5.93;3.83;;;4.50;99.90;;;;;;5053247;28;20322;-71
2023/01/17 02:13:49;;;;;;;6.43;4.30;;;4.40;99.90;;;;;;5046121;28;20245;-71
2023/01/17 02:16:42;;;;;;;4.33;3.53;;;4.40;99.90;;;;;;5053737;28;20233;-71
2023/01/17 02:19:35;;;;;;;4.17;3.37;;;4.40;99.90;;;;;;5043523;28;20209;-71
2023/01/17 02:22:20;;;;;;;5.13;3.40;;;4.30;99.90;;;;;;5053488;28;20230;-71
2023/01/17 02:25:12;;;;;;;3.73;3.07;;;4.30;99.90;;;;;;5053043;28;20203;-71
2023/01/17 02:27:56;;;;;;;4.73;3.50;;;4.30;99.90;;;;;;5040514;28;20234;-71
2023/01/17 02:30:33;;;;;;;5.33;3.70;;;4.20;99.90;;;;;;5044150;28;20231;-71
2023/01/17 02:33:11;;;;;;;4.63;3.03;;;4.20;99.90;;;;;;5053464;28;20642;-71
2023/01/17 02:35:47;;;;;;;5.57;3.67;;;4.20;99.90;;;;;;5053977;28;20600;-71
2023/01/17 02:38:20;;;;;;;4.20;3.80;;;4.10;99.90;;;;;;5051887;28;20283;-71
2023/01/17 02:40:51;;;;;;;5.80;3.80;;;4.10;99.90;;;;;;5049290;28;20241;-71
2023/01/17 02:43:20;;;;;;;6.73;4.07;;;4.10;99.90;;;;;;5052752;28;20741;-71
2023/01/17 02:45:49;;;;;;;7.17;4.47;;;4.10;99.90;;;;;;5053311;28;20724;-71
2023/01/17 02:48:18;;;;;;;6.83;4.37;;;4.10;99.90;;;;;;5053674;28;20642;-71
2023/01/17 02:51:08;;;;;;;9.40;5.33;;;4.20;99.90;;;;;;5053107;28;20278;-71
2023/01/17 02:53:45;;;;;;;7.10;4.83;;;4.20;99.90;;;;;;5049035;28;20649;-71
2023/01/17 02:56:28;;;;;;;6.47;4.07;;;4.20;99.90;;;;;;5048321;28;20281;-71
2023/01/17 02:59:09;;;;;;;5.83;4.20;;;4.20;99.90;;;;;;5050780;28;20282;-71
2023/01/17 03:01:50;;;;;;;7.03;4.53;;;4.20;99.90;;;;;;5043739;28;20245;-71
2023/01/17 03:04:24;;;;;;;5.67;4.00;;;4.30;99.90;;;;;;5051798;28;20282;-71
2023/01/17 03:06:55;;;;;;;5.93;4.40;;;4.30;99.90;;;;;;5040128;28;20223;-71
2023/01/17 03:09:24;;;;;;;7.07;4.90;;;4.30;99.90;;;;;;5050948;28;20316;-71
2023/01/17 03:11:52;;;;;;;5.77;4.10;;;4.30;99.90;;;;;;5052482;28;20297;-71
2023/01/17 03:14:19;;;;;;;6.30;4.40;;;4.30;99.90;;;;;;5053069;28;20646;-71
2023/01/17 03:16:47;;;;;;;4.67;3.80;;;4.40;99.90;;;;;;5052647;28;20278;-71
2023/01/17 03:19:14;;;;;;;4.80;3.67;;;4.40;99.90;;;;;;5051948;28;20233;-71
2023/01/17 03:21:42;;;;;;;5.23;3.60;;;4.40;99.90;;;;;;5052744;28;20222;-71
2023/01/17 03:24:09;;;;;;;6.17;3.43;;;4.40;99.90;;;;;;5051758;28;20295;-71
2023/01/17 03:26:35;;;;;;;4.87;3.40;;;4.40;99.90;;;;;;5053096;28;20282;-71
2023/01/17 03:29:02;;;;;;;4.07;3.20;;;4.50;99.90;;;;;;5051372;28;20234;-71
2023/01/17 03:31:29;;;;;;;4.37;3.57;;;4.50;99.90;;;;;;5051583;28;20306;-71
2023/01/17 03:33:58;;;;;;;4.47;3.63;;;4.40;99.90;;;;;;5051264;28;20286;-71
2023/01/17 03:36:25;;;;;;;5.10;3.57;;;4.40;99.90;;;;;;5050897;28;20289;-71
2023/01/17 03:38:51;;;;;;;4.00;3.33;;;4.40;99.90;;;;;;5050915;28;20642;-71
2023/01/17 03:41:18;;;;;;;5.73;3.47;;;4.40;99.90;;;;;;5052693;28;20235;-71
2023/01/17 03:43:45;;;;;;;3.47;3.17;;;4.40;99.90;;;;;;5051353;28;20274;-70
2023/01/17 03:46:20;;;;;;;4.17;3.00;;;4.40;99.90;;;;;;5052559;28;20238;-71
2023/01/17 03:48:47;;;;;;;4.47;3.50;;;4.40;99.90;;;;;;5052900;28;20285;-71
2023/01/17 03:51:16;;;;;;;5.23;3.87;;;4.40;99.90;;;;;;5052127;28;20313;-71
2023/01/17 03:53:45;;;;;;;5.13;3.73;;;4.40;99.90;;;;;;5051209;28;20289;-71
2023/01/17 03:56:12;;;;;;;5.17;4.00;;;4.40;99.90;;;;;;5053378;28;20211;-71
2023/01/17 03:58:39;;;;;;;4.87;3.53;;;4.40;99.90;;;;;;5050885;28;20243;-71
2023/01/17 04:01:06;;;;;;;4.97;3.87;;;4.30;99.90;;;;;;5051627;28;20238;-71
2023/01/17 04:03:33;;;;;;;5.00;3.63;;;4.30;99.90;;;;;;5051585;28;20502;-71
2023/01/17 04:06:00;;;;;;;5.07;4.00;;;4.20;99.90;;;;;;5051237;28;20268;-71
2023/01/17 04:08:29;;;;;;;5.23;3.93;;;4.20;99.90;;;;;;5052261;28;20214;-71
2023/01/17 04:10:56;;;;;;;5.00;3.77;;;4.20;99.90;;;;;;5049363;28;20213;-71
2023/01/17 04:13:23;;;;;;;6.83;4.20;;;4.10;99.90;;;;;;5050178;28;20242;-71
2023/01/17 04:15:51;;;;;;;7.07;4.10;;;4.10;99.90;;;;;;5050297;28;20285;-71
2023/01/17 04:18:20;;;;;;;5.00;3.87;;;4.10;99.90;;;;;;5049659;28;20294;-71
2023/01/17 04:20:47;;;;;;;5.90;4.40;;;4.10;99.90;;;;;;5050096;28;20713;-70
2023/01/17 04:23:13;;;;;;;6.70;4.50;;;4.10;99.90;;;;;;5050223;28;20290;-71
2023/01/17 04:25:42;;;;;;;5.60;4.30;;;4.10;99.90;;;;;;5051889;28;20657;-69
2023/01/17 04:28:10;;;;;;;6.00;4.17;;;4.10;99.90;;;;;;5051052;28;20280;-69
2023/01/17 04:30:37;;;;;;;5.10;4.20;;;4.10;99.90;;;;;;5031549;28;20238;-70
2023/01/17 04:33:05;;;;;;;4.57;3.90;;;4.10;99.90;;;;;;5048213;28;20254;-70
2023/01/17 04:35:33;;;;;;;5.13;4.23;;;4.10;99.90;;;;;;5051009;28;20282;-70
2023/01/17 04:38:00;;;;;;;4.40;3.43;;;4.20;99.90;;;;;;5050253;28;20645;-69
2023/01/17 04:40:28;;;;;;;8.63;4.40;;;4.20;99.90;;;;;;5048600;28;20305;-70
2023/01/17 04:42:57;;;;;;;4.37;3.67;;;4.20;99.90;;;;;;5047913;28;20580;-70
2023/01/17 04:45:24;;;;;;;4.83;3.77;;;4.20;99.90;;;;;;5048391;28;20199;-70
2023/01/17 04:47:51;;;;;;;3.63;3.27;;;4.20;99.90;;;;;;5049080;28;20299;-70
2023/01/17 04:50:18;;;;;;;4.33;3.40;;;4.20;99.90;;;;;;5047886;28;20701;-70
2023/01/17 04:52:45;;;;;;;4.70;3.83;;;4.20;99.90;;;;;;5048027;28;20218;-70
2023/01/17 04:55:12;;;;;;;4.90;3.07;;;4.20;99.90;;;;;;5049446;28;20230;-70
2023/01/17 04:57:39;;;;;;;2.57;2.30;;;4.20;99.90;;;;;;5051273;28;20684;-70
2023/01/17 05:00:09;;;;;;;3.67;2.50;;;4.10;99.90;;;;;;5051194;28;20284;-69
2023/01/17 05:02:35;;;;;;;1.83;1.67;;;4.10;99.90;;;;;;5049996;28;20616;-70
2023/01/17 05:05:02;;;;;;;2.67;2.30;;;4.10;99.90;;;;;;5049910;28;20281;-70
2023/01/17 05:07:29;;;;;;;2.03;1.77;;;4.10;99.90;;;;;;5050952;28;20629;-70
2023/01/17 05:09:58;;;;;;;2.33;2.00;;;4.20;99.90;;;;;;5050001;28;20207;-70
2023/01/17 05:12:25;;;;;;;1.90;1.70;;;4.20;99.90;;;;;;5051255;28;20223;-70
2023/01/17 05:14:52;;;;;;;3.13;2.37;;;4.10;99.90;;;;;;5050293;28;20239;-69
2023/01/17 05:17:20;;;;;;;2.33;2.10;;;4.10;99.90;;;;;;5049708;28;20235;-69
2023/01/17 05:19:47;;;;;;;2.20;2.00;;;4.10;99.90;;;;;;5050837;28;20298;-69
2023/01/17 05:22:14;;;;;;;2.03;1.80;;;4.00;99.90;;;;;;5050790;28;20294;-70
2023/01/17 05:24:42;;;;;;;2.10;1.90;;;4.00;99.90;;;;;;5054471;28;20285;-70
2023/01/17 05:27:09;;;;;;;1.93;1.63;;;3.90;99.90;;;;;;5054420;28;20290;-69
2023/01/17 05:29:36;;;;;;;2.37;1.70;;;3.80;99.90;;;;;;5055130;28;20239;-70
2023/01/17 05:32:03;;;;;;;1.77;1.40;;;3.80;99.90;;;;;;5054750;28;20254;-70
2023/01/17 05:34:32;;;;;;;1.87;1.63;;;3.70;99.90;;;;;;5055208;28;20717;-70
2023/01/17 05:36:59;;;;;;;1.40;1.20;;;3.70;99.90;;;;;;5054871;28;20201;-69
2023/01/17 05:39:26;;;;;;;0.97;0.80;;;3.70;99.90;;;;;;5052917;28;20637;-70
2023/01/17 05:41:53;;;;;;;0.80;0.80;;;3.70;99.90;;;;;;5054304;28;20191;-69
2023/01/17 05:44:20;;;;;;;1.17;0.67;;;3.60;99.90;;;;;;5054090;28;20236;-70
2023/01/17 05:46:46;;;;;;;0.50;0.50;;;3.60;99.90;;;;;;5054120;28;20241;-69
2023/01/17 05:49:13;;;;;;;0.60;0.30;;;3.60;99.90;;;;;;5054978;28;20285;-69
2023/01/17 05:51:42;;;;;;;0.30;0.30;;;3.50;99.90;;;;;;5054798;28;20646;-70
2023/01/17 05:54:09;;;;;;;0.20;0.20;;;3.40;99.90;;;;;;5053772;28;20319;-69
2023/01/17 05:56:35;;;;;;;0.50;0.23;;;3.40;99.90;;;;;;5054775;28;20235;-69
2023/01/17 05:59:02;;;;;;;0.13;0.13;;;3.30;99.90;;;;;;5053475;28;20238;-69
2023/01/17 06:01:29;;;;;;;0.10;0.10;;;3.30;99.90;;;;;;5054415;28;20234;-70
2023/01/17 06:03:56;;;;;;;0.20;0.10;;;3.20;99.90;;;;;;5053538;28;20720;-69
2023/01/17 06:06:23;;;;;;;0.20;0.10;;;3.20;99.90;;;;;;5054322;28;20287;-70
2023/01/17 06:08:52;;;;;;;0.43;0.10;;;3.30;99.90;;;;;;5053493;28;20290;-69
2023/01/17 06:11:19;;;;;;;0.57;0.40;;;3.20;99.90;;;;;;5053610;28;20606;-69
2023/01/17 06:13:47;;;;;;;0.57;0.30;;;3.20;99.90;;;;;;5033851;28;20270;-69
2023/01/17 06:16:14;;;;;;;1.53;0.90;;;3.20;99.90;;;;;;5050070;28;20448;-70
2023/01/17 06:18:41;;;;;;;0.93;0.70;;;3.20;99.90;;;;;;5053874;28;20203;-69
2023/01/17 06:21:09;;;;;;;0.50;0.50;;;3.20;99.90;;;;;;5053184;28;20214;-69
2023/01/17 06:23:35;;;;;;;0.57;0.43;;;3.10;99.90;;;;;;5052706;28;20203;-69
2023/01/17 06:26:05;;;;;;;0.10;0.10;;;3.10;99.90;;;;;;5054258;28;20364;-69
2023/01/17 06:28:32;;;;;;;0.30;0.30;;;3.00;99.90;;;;;;5053333;28;20222;-69
2023/01/17 06:30:59;;;;;;;0.87;0.30;;;2.90;99.90;;;;;;5053828;28;20234;-69
2023/01/17 06:33:26;;;;;;;0.30;0.30;;;2.90;99.90;;;;;;5052702;28;20687;-69
2023/01/17 06:35:53;;;;;;;0.27;0.20;;;2.90;99.90;;;;;;5053817;28;20238;-68
2023/01/17 06:38:20;;;;;;;0.57;0.40;;;2.80;99.90;;;;;;5053043;28;20298;-68
2023/01/17 06:40:47;;;;;;;0.80;0.27;;;2.90;99.90;;;;;;5053807;28;20290;-68
2023/01/17 06:43:16;;;;;;;0.37;0.30;;;2.80;99.90;;;;;;5052558;28;20293;-68
2023/01/17 06:45:43;;;;;;;0.33;0.30;;;2.80;99.90;;;;;;5053960;28;20272;-68
2023/01/17 06:48:10;;;;;;;0.30;0.30;;;2.80;99.90;;;;;;5053501;28;20199;-68
2023/01/17 06:50:37;;;;;;;0.70;0.30;;;2.80;99.90;;;;;;5053514;28;20227;-68
2023/01/17 06:53:06;;;;;;;0.43;0.40;;;2.90;99.90;;;;;;5052382;28;20309;-68
2023/01/17 06:55:34;;;;;;;1.03;0.30;;;2.80;99.90;;;;;;5053289;28;20611;-69
2023/01/17 06:58:02;;;;;;;1.67;0.43;;;2.90;99.90;;;;;;5053572;28;20282;-68
2023/01/17 07:00:33;;;;;;;0.20;0.20;;;2.80;99.90;;;;;;5053680;28;20672;-68
2023/01/17 07:03:00;;;;;;;0.40;0.40;;;2.80;99.90;;;;;;5053304;28;20195;-68
2023/01/17 07:05:27;;;;;;;2.43;0.70;;;2.80;99.90;;;;;;5052429;28;20733;-68
2023/01/17 07:07:54;;;;;;;1.90;0.70;;;2.80;99.90;;;;;;5052989;28;20200;-68
2023/01/17 07:10:22;;;;;;;2.90;1.07;;;2.70;99.90;;;;;;5052246;28;20267;-68
2023/01/17 07:12:50;;;;;;;1.67;0.30;;;2.70;99.90;;;;;;5053122;28;20455;-68
2023/01/17 07:15:17;;;;;;;3.67;1.03;;;2.70;99.90;;;;;;5053548;28;20264;-68
2023/01/17 07:17:45;;;;;;;1.60;0.53;;;2.70;99.90;;;;;;5051526;28;20238;-68
2023/01/17 07:20:12;;;;;;;3.03;0.40;;;2.70;99.90;;;;;;5053158;28;20297;-68
2023/01/17 07:22:39;;;;;;;4.03;0.60;;;2.60;99.90;;;;;;5052536;28;20195;-68
2023/01/17 07:25:07;;;;;;;0.57;0.30;;;2.60;99.90;;;;;;5053278;28;20238;-68
2023/01/17 07:27:34;;;;;;;0.20;0.20;;;2.60;99.90;;;;;;5053226;28;20625;-68
2023/01/17 07:30:01;;;;;;;0.20;0.20;;;2.60;99.90;;;;;;5053145;28;20294;-68
2023/01/17 07:32:28;;;;;;;0.30;0.20;;;2.60;99.90;;;;;;5050765;28;20250;-68
2023/01/17 07:34:57;;;;;;;0.10;0.10;;;2.60;99.90;;;;;;5052355;28;20203;-68
2023/01/17 07:37:25;;;;;;;0.20;0.20;;;2.60;99.90;;;;;;5052456;28;20203;-68
2023/01/17 07:39:52;;;;;;;1.07;0.50;;;2.60;99.90;;;;;;5051409;28;20214;-68
2023/01/17 07:42:19;;;;;;;0.10;0.10;;;2.60;99.90;;;;;;5052452;28;20206;-68
2023/01/17 07:44:46;;;;;;;0.20;0.20;;;2.60;99.90;;;;;;5051681;28;20665;-68
2023/01/17 07:47:13;;;;;;;0.60;0.47;;;2.60;99.90;;;;;;5051974;28;20291;-68
2023/01/17 07:49:40;;;;;;;0.90;0.30;;;2.60;99.90;;;;;;5052115;28;20693;-68
2023/01/17 07:52:09;;;;;;;2.00;0.80;;;2.60;99.90;;;;;;5052494;28;20684;-68
2023/01/17 07:54:36;;;;;;;2.00;0.57;;;2.60;99.90;;;;;;5051212;28;20290;-68
2023/01/17 07:57:03;;;;;;;1.83;0.80;;;2.60;99.90;;;;;;5051407;28;20294;-68
2023/01/17 07:59:32;;;;;;;1.13;0.90;;;2.60;99.90;;;;;;5051591;28;20205;-68
2023/01/17 08:01:59;;;;;;;3.43;0.90;;;2.60;99.90;;;;;;5052093;28;20222;-68
2023/01/17 08:04:27;;;;;;;1.03;0.90;;;2.60;99.90;;;;;;5052332;28;20203;-68
2023/01/17 08:06:54;;;;;;;3.23;0.93;;;2.70;99.90;;;;;;5052473;28;20214;-68
2023/01/17 08:09:23;;;;;;;2.07;1.43;;;2.60;99.90;;;;;;5052157;28;20238;-68
2023/01/17 08:11:49;;;;;;;3.23;1.03;;;2.70;99.90;;;;;;5050852;28;20290;-68
2023/01/17 08:14:16;;;;;;;2.13;1.17;;;2.70;99.90;;;;;;5052131;28;20314;-68
2023/01/17 08:16:43;;;;;;;2.63;0.83;;;2.70;99.90;;;;;;5051511;28;20649;-68
2023/01/17 08:19:10;;;;;;;3.60;1.10;;;2.80;99.90;;;;;;5052034;28;20235;-68
2023/01/17 08:21:37;;;;;;;1.37;1.00;;;2.80;99.90;;;;;;5051965;28;20629;-68
2023/01/17 08:24:05;;;;;;;1.90;1.30;;;2.90;99.90;;;;;;5051798;28;20273;-68
2023/01/17 08:26:33;;;;;;;3.03;1.10;;;2.90;99.90;;;;;;5050398;28;20281;-68
2023/01/17 08:29:01;;;;;;;4.03;0.90;;;3.00;99.90;;;;;;5050442;28;20289;-68
2023/01/17 08:31:28;;;;;;;2.53;1.00;;;3.00;99.90;;;;;;5051596;28;20282;-68
2023/01/17 08:33:56;;;;;;;2.07;1.50;;;3.10;99.90;;;;;;5051554;28;20258;-68
2023/01/17 08:36:24;;;;;;;4.20;1.30;;;3.20;99.90;;;;;;5051932;28;20295;-68
2023/01/17 08:38:52;;;;;;;3.73;1.10;;;3.20;99.90;;;;;;5051868;28;20246;-68
2023/01/17 08:41:19;;;;;;;2.30;1.13;;;3.20;99.90;;;;;;5051362;28;20203;-68
2023/01/17 08:43:49;;;;;;;2.80;1.23;;;3.30;99.90;;;;;;5050922;28;20277;-68
2023/01/17 08:46:16;;;;;;;2.43;0.93;;;3.40;99.90;;;;;;5051011;28;20234;-68
2023/01/17 08:48:43;;;;;;;2.50;1.40;;;3.80;99.90;;;;;;5051481;28;20282;-69
2023/01/17 08:51:11;;;;;;;3.47;1.20;;;3.50;99.90;;;;;;5051637;28;20218;-68
2023/01/17 08:53:38;;;;;;;3.20;1.37;;;3.90;99.90;;;;;;5050862;28;20756;-68
2023/01/17 08:56:06;;;;;;;1.77;1.03;;;3.70;99.90;;;;;;5050872;28;20302;-68
2023/01/17 08:58:33;;;;;;;3.10;1.37;;;3.70;99.90;;;;;;5049621;28;20725;-68
2023/01/17 09:01:03;;;;;;;4.03;1.23;;;3.50;99.90;;;;;;5051368;28;20677;-68
2023/01/17 09:03:30;;;;;;;3.47;1.10;;;3.60;99.90;;;;;;5051336;28;20696;-68
2023/01/17 09:06:04;;;;;;;3.70;1.43;;;3.90;99.90;;;;;;5050480;28;20290;-68
2023/01/17 09:08:31;;;;;;;3.33;1.90;;;3.80;99.90;;;;;;5051568;28;20241;-68
2023/01/17 09:10:58;;;;;;;1.77;1.07;;;3.90;99.90;;;;;;5049415;28;20310;-68
2023/01/17 09:13:25;;;;;;;4.33;1.33;;;4.30;99.90;;;;;;5050990;28;20306;-68
2023/01/17 09:15:56;;;;;;;2.80;1.03;;;4.30;99.90;;;;;;5051194;28;20623;-69
2023/01/17 09:18:25;;;;;;;2.67;1.33;;;4.10;99.90;;;;;;5049698;28;20211;-68
2023/01/17 09:20:54;;;;;;;2.77;1.30;;;4.20;99.90;;;;;;5051066;28;20238;-68
2023/01/17 09:23:21;;;;;;;7.10;2.00;;;4.00;99.90;;;;;;5051392;28;20214;-68
2023/01/17 09:25:52;;;;;;;3.27;1.50;;;4.20;99.90;;;;;;5049626;28;20641;-68
2023/01/17 09:28:20;;;;;;;5.37;1.47;;;4.10;99.90;;;;;;5051046;28;20665;-68
2023/01/17 09:30:48;;;;;;;4.73;1.60;;;4.10;99.90;;;;;;5050598;28;20206;-68
2023/01/17 09:33:16;;;;;;;1.40;1.30;;;4.40;99.90;;;;;;5050683;28;20258;-68
2023/01/17 09:35:44;;;;;;;2.47;1.63;;;4.50;99.90;;;;;;5051297;28;20671;-68
2023/01/17 09:38:12;;;;;;;5.23;1.87;;;4.70;99.90;;;;;;5049685;28;20713;-68
2023/01/17 09:40:44;;;;;;;3.97;1.87;;;4.80;99.90;;;;;;5051007;28;20293;-68
2023/01/17 09:43:27;;;;;;;3.77;2.00;;;4.70;99.90;;;;;;5050720;28;20238;-68
2023/01/17 09:45:54;;;;;;;4.40;2.03;;;5.50;99.90;;;;;;5051246;28;20670;-68
2023/01/17 09:48:31;;;;;;;4.50;2.13;;;5.30;99.90;;;;;;5050901;28;20203;-68
2023/01/17 09:51:06;;;;;;;4.87;1.87;;;4.30;99.90;;;;;;5051011;28;20594;-68
2023/01/17 09:53:36;;;;;;;2.47;1.90;;;4.20;99.90;;;;;;5049832;28;20214;-68
2023/01/17 09:56:07;;;;;;;3.63;1.97;;;4.30;99.90;;;;;;5051142;28;20207;-68
2023/01/17 09:58:40;;;;;;;3.23;1.80;;;4.30;99.90;;;;;;5050994;28;20282;-68
2023/01/17 10:01:15;;;;;;;4.93;2.40;;;4.30;99.90;;;;;;5051097;28;20288;-72
2023/01/17 10:03:50;;;;;;;4.63;2.13;;;4.40;99.90;;;;;;5050106;28;20198;-70
2023/01/17 10:06:36;;;;;;;5.00;2.00;;;4.60;99.90;;;;;;5049826;28;20242;-71
2023/01/17 10:09:16;;;;;;;5.73;2.23;;;4.50;99.90;;;;;;5045003;28;20234;-70
2023/01/17 10:12:03;;;;;;;7.03;2.37;;;4.30;99.90;;;;;;5053174;28;20246;-71
2023/01/17 10:14:47;;;;;;;3.87;2.17;;;4.30;99.90;;;;;;5054508;28;20275;-71
2023/01/17 10:17:25;;;;;;;5.13;2.00;;;4.10;99.90;;;;;;5054630;28;20241;-71
2023/01/17 10:20:05;;;;;;;2.40;1.90;;;4.10;99.90;;;;;;5054029;28;20336;-70
2023/01/17 10:23:03;;;;;;;4.30;2.00;;;4.20;99.90;;;;;;5052711;28;20199;-71
2023/01/17 10:25:43;;;;;;;2.70;1.67;;;4.30;99.90;;;;;;5054358;28;20202;-70
2023/01/17 10:28:16;;;;;;;3.70;2.17;;;4.40;99.90;;;;;;5053636;28;20230;-71
2023/01/17 10:30:48;;;;;;;9.93;2.27;;;4.60;99.90;;;;;;5054343;28;20226;-71
2023/01/17 10:33:20;;;;;;;5.77;2.37;;;4.40;99.90;;;;;;5053746;28;20580;-70
2023/01/17 10:35:57;;;;;;;6.33;1.93;;;4.20;99.90;;;;;;5053501;28;20199;-71
2023/01/17 10:38:31;;;;;;;5.30;1.93;;;4.40;99.90;;;;;;5051859;28;20673;-71
2023/01/17 10:41:02;;;;;;;8.77;2.00;;;4.50;99.90;;;;;;5053716;28;20290;-70
2023/01/17 10:43:39;;;;;;;2.33;2.10;;;4.50;99.90;;;;;;5053544;28;20606;-71
2023/01/17 10:46:15;;;;;;;3.23;2.37;;;4.60;99.90;;;;;;5053514;28;20551;-71
2023/01/17 10:48:45;;;;;;;3.43;1.80;;;4.70;99.90;;;;;;5053138;28;20234;-71
2023/01/17 10:51:21;;;;;;;3.73;1.60;;;4.70;99.90;;;;;;5053264;28;20294;-70
2023/01/17 10:54:02;;;;;;;5.50;1.57;;;4.70;99.90;;;;;;5052034;28;20225;-71
2023/01/17 10:56:30;;;;;;;2.83;1.50;;;4.80;99.90;;;;;;5052244;28;20322;-71
2023/01/17 10:59:18;;;;;;;3.63;1.77;;;4.70;99.90;;;;;;5052425;28;20673;-70
2023/01/17 11:01:45;;;;;;;7.27;1.80;;;4.80;99.90;;;;;;5053423;28;20645;-71
2023/01/17 11:04:19;;;;;;;6.20;1.80;;;4.90;99.90;;;;;;5052923;28;20237;-70
2023/01/17 11:06:46;;;;;;;4.97;1.50;;;4.80;99.90;;;;;;5053763;28;20285;-70
2023/01/17 11:09:15;;;;;;;5.43;1.70;;;4.70;99.90;;;;;;5052756;28;20206;-71
2023/01/17 11:11:49;;;;;;;3.50;1.97;;;4.60;99.90;;;;;;5051845;28;20213;-70
2023/01/17 11:14:19;;;;;;;4.97;1.90;;;4.60;99.90;;;;;;5052959;28;20234;-70
2023/01/17 11:16:59;;;;;;;5.10;1.57;;;4.70;99.90;;;;;;5053705;28;20207;-71
2023/01/17 11:19:30;;;;;;;5.63;1.73;;;4.60;99.90;;;;;;5053301;28;20230;-70
2023/01/17 11:22:00;;;;;;;1.70;1.50;;;4.60;99.90;;;;;;5051816;28;20676;-71
2023/01/17 11:24:34;;;;;;;6.97;1.90;;;4.60;99.90;;;;;;5052910;28;20222;-71
2023/01/17 11:27:04;;;;;;;4.90;1.50;;;4.50;99.90;;;;;;5052244;28;20203;-71
2023/01/17 11:29:34;;;;;;;4.27;1.53;;;4.50;99.90;;;;;;5052588;28;20579;-70
2023/01/17 11:32:27;;;;;;;5.50;1.60;;;4.60;99.90;;;;;;5051729;28;20884;-71
2023/01/17 11:35:07;;;;;;;4.30;1.43;;;4.70;99.90;;;;;;5052478;28;20227;-71
2023/01/17 11:37:35;;;;;;;3.77;1.63;;;4.80;99.90;;;;;;5052672;28;20294;-71
2023/01/17 11:40:18;;;;;;;4.20;1.67;;;4.80;99.90;;;;;;5050877;28;20280;-71
2023/01/17 11:42:45;;;;;;;3.50;1.60;;;4.80;99.90;;;;;;5052713;28;20290;-71
2023/01/17 11:45:25;;;;;;;1.97;1.07;;;4.80;99.90;;;;;;5052648;28;20261;-72
2023/01/17 11:48:13;;;;;;;5.50;1.63;;;4.80;99.90;;;;;;5052875;28;20230;-72
2023/01/17 11:50:43;;;;;;;6.83;1.70;;;4.70;99.90;;;;;;5052651;28;20199;-70
2023/01/17 11:53:24;;;;;;;6.57;1.70;;;4.70;99.90;;;;;;5051829;28;20322;-70
2023/01/17 11:56:05;;;;;;;4.93;1.30;;;4.60;99.90;;;;;;5052283;28;20597;-70
2023/01/17 11:58:33;;;;;;;6.63;1.80;;;4.70;99.90;;;;;;5052132;28;20203;-71
2023/01/17 12:01:34;;;;;;;3.87;1.40;;;4.80;99.90;;;;;;5051899;28;20290;-70
2023/01/17 12:04:21;;;;;;;4.90;1.60;;;4.80;99.90;;;;;;5050671;28;20203;-72
2023/01/17 12:07:09;;;;;;;4.33;1.37;;;6.20;99.90;;;;;;5051808;28;20605;-71
2023/01/17 12:09:42;;;;;;;4.27;1.63;;;7.30;99.90;;;;;;5050086;28;20227;-70
2023/01/17 12:15:31;;;;;;;6.27;1.93;;;6.60;99.90;;;;;;5052089;28;20233;-71
2023/01/17 12:18:18;;;;;;;6.03;1.93;;;6.00;99.90;;;;;;5049096;28;20301;-72
2023/01/17 12:20:55;;;;;;;3.03;2.10;;;5.90;99.90;;;;;;5044237;28;20241;-70
2023/01/17 12:23:36;;;;;;;3.07;1.57;;;6.10;99.90;;;;;;5052734;28;20692;-71
2023/01/17 12:26:23;;;;;;;3.67;1.77;;;6.20;99.90;;;;;;5049766;28;20285;-71
2023/01/17 12:29:04;;;;;;;5.50;2.13;;;5.60;99.90;;;;;;5049929;28;20569;-70
2023/01/17 12:31:34;;;;;;;3.57;1.60;;;5.40;99.90;;;;;;5051264;28;20282;-71
2023/01/17 12:34:15;;;;;;;4.57;1.60;;;5.40;99.90;;;;;;5050797;28;20317;-70
2023/01/17 12:36:48;;;;;;;2.30;1.37;;;5.60;99.90;;;;;;5051311;28;20294;-72
2023/01/17 12:39:18;;;;;;;3.07;1.50;;;5.90;99.90;;;;;;5050735;28;20639;-71
2023/01/17 12:41:57;;;;;;;3.33;1.40;;;6.20;99.90;;;;;;5031355;28;20231;-72
2023/01/17 12:44:39;;;;;;;5.70;1.67;;;6.20;99.90;;;;;;5050321;28;20624;-70
2023/01/17 12:47:06;;;;;;;4.93;1.90;;;5.80;99.90;;;;;;5045772;28;20238;-72
2023/01/17 12:49:41;;;;;;;5.20;1.97;;;5.80;99.90;;;;;;5051364;28;20203;-72
2023/01/17 12:52:17;;;;;;;4.43;1.87;;;5.70;99.90;;;;;;5051192;28;20213;-70
2023/01/17 12:54:50;;;;;;;6.57;2.43;;;6.30;99.90;;;;;;5050931;28;20262;-72
2023/01/17 12:57:21;;;;;;;5.20;1.73;;;6.70;99.90;;;;;;5049438;28;20298;-71
2023/01/17 12:59:56;;;;;;;3.87;1.80;;;6.60;99.90;;;;;;5051134;28;20294;-72
2023/01/17 13:02:35;;;;;;;5.73;1.80;;;6.40;99.90;;;;;;5050374;28;20290;-70
2023/01/17 13:05:09;;;;;;;4.67;2.00;;;6.70;99.90;;;;;;5050941;28;20323;-72
2023/01/17 13:07:45;;;;;;;4.40;2.00;;;6.20;99.90;;;;;;5051575;28;20604;-72
2023/01/17 13:10:23;;;;;;;6.30;1.93;;;5.80;99.90;;;;;;5050607;28;20202;-72
2023/01/17 13:12:51;;;;;;;5.73;2.43;;;5.60;99.90;;;;;;5051054;28;20277;-72
2023/01/17 13:15:25;;;;;;;5.77;2.63;;;5.70;99.90;;;;;;5051286;28;20234;-72
2023/01/17 13:17:57;;;;;;;4.23;2.50;;;6.10;99.90;;;;;;5048964;28;20286;-72
2023/01/17 13:20:32;;;;;;;4.40;2.17;;;5.80;99.90;;;;;;5050514;28;20661;-72
2023/01/17 13:23:09;;;;;;;3.63;1.87;;;6.10;99.90;;;;;;5049874;28;20238;-72
2023/01/17 13:25:42;;;;;;;5.93;3.17;;;6.00;99.90;;;;;;5051238;28;20210;-70
2023/01/17 13:28:21;;;;;;;4.43;2.03;;;5.60;99.90;;;;;;5050348;28;20293;-72
2023/01/17 13:31:14;;;;;;;4.37;2.83;;;5.00;99.90;;;;;;5051409;28;20241;-71
2023/01/17 13:34:09;;;;;;;6.40;2.63;;;5.20;99.90;;;;;;5049796;28;20617;-70
2023/01/17 13:36:55;;;;;;;2.87;2.30;;;5.20;99.90;;;;;;5050521;28;20740;-70
2023/01/17 13:39:48;;;;;;;7.13;3.07;;;5.20;99.90;;;;;;5051082;28;20729;-72
2023/01/17 13:42:23;;;;;;;7.33;2.80;;;5.00;99.90;;;;;;5050703;28;20235;-71
2023/01/17 13:44:50;;;;;;;3.60;2.43;;;5.50;99.90;;;;;;5052531;28;20206;-70
2023/01/17 13:47:46;;;;;;;4.97;3.53;;;5.50;99.90;;;;;;5055150;28;20725;-70
2023/01/17 13:50:48;;;;;;;5.33;3.27;;;5.10;99.90;;;;;;5019129;28;20253;-71
2023/01/17 13:53:53;;;;;;;6.83;3.70;;;4.80;99.90;;;;;;5053223;28;20199;-71
2023/01/17 13:56:29;;;;;;;5.30;3.50;;;4.40;99.90;;;;;;5054669;28;20229;-70
2023/01/17 13:59:32;;;;;;;9.37;4.23;;;4.30;99.90;;;;;;5054736;28;20716;-70
2023/01/17 14:01:59;;;;;;;6.67;4.30;;;4.30;99.90;;;;;;5051182;28;20206;-72
2023/01/17 14:04:59;;;;;;;5.97;3.70;;;4.30;99.90;;;;;;5054144;28;20294;-70
2023/01/17 14:07:28;;;;;;;6.20;3.63;;;4.20;99.90;;;;;;5047443;28;20253;-70
2023/01/17 14:09:55;;;;;;;7.17;3.67;;;4.20;99.90;;;;;;5054529;28;20576;-70
2023/01/17 14:12:30;;;;;;;5.37;3.17;;;4.20;99.90;;;;;;5054134;28;20246;-70
2023/01/17 14:15:00;;;;;;;4.60;3.20;;;4.20;99.90;;;;;;5054282;28;20959;-71
2023/01/17 14:17:57;;;;;;;5.90;3.80;;;4.20;99.90;;;;;;5054545;28;20286;-70
2023/01/17 14:20:44;;;;;;;8.77;3.37;;;4.20;99.90;;;;;;5050526;28;20211;-71
2023/01/17 14:23:52;;;;;;;7.47;3.40;;;4.10;99.90;;;;;;5052242;28;20238;-72
2023/01/17 14:26:45;;;;;;;6.57;3.90;;;4.20;99.90;;;;;;5053970;28;20290;-71
2023/01/17 14:29:55;;;;;;;9.20;3.70;;;4.20;99.90;;;;;;5053080;28;20253;-70
2023/01/17 14:32:24;;;;;;;6.03;3.33;;;4.20;99.90;;;;;;5053882;28;20653;-72
2023/01/17 14:34:52;;;;;;;6.70;3.40;;;4.20;99.90;;;;;;5054130;28;20625;-72
2023/01/17 14:37:30;;;;;;;7.40;3.30;;;4.30;99.90;;;;;;5052652;28;20672;-72
2023/01/17 14:39:57;;;;;;;6.03;3.37;;;4.30;99.90;;;;;;5054215;28;20662;-70
2023/01/17 14:42:27;;;;;;;6.20;3.47;;;4.30;99.90;;;;;;5053563;28;20288;-72
2023/01/17 14:45:00;;;;;;;5.07;3.23;;;4.20;99.90;;;;;;5053698;28;20290;-71
2023/01/17 14:47:30;;;;;;;6.17;3.20;;;4.20;99.90;;;;;;5053300;28;20286;-70
2023/01/17 14:50:12;;;;;;;7.07;3.67;;;4.10;99.90;;;;;;5052309;28;20648;-71